Time;durP1;ratioP1;P1;durP2;ratioP2;P2;SDS_P1;SDS_P2;PMS_P1;PMS_P2;Temp;Humidity;BMP_temperature;BMP_pressure;BME280_temperature;BME280_humidity;BME280_pressure;Samples;Min_cycle;Max_cycle;Signal;HPM_P1;HPM_P2
2023/06/22 00:01:59;;;;;;;13.73;12.33;;;21.60;99.90;;;;;;5047241;28;20225;-72
2023/06/22 00:04:25;;;;;;;13.97;12.67;;;21.60;99.90;;;;;;5044038;28;20214;-74
2023/06/22 00:06:51;;;;;;;12.27;11.17;;;21.60;99.90;;;;;;5045869;28;20194;-76
2023/06/22 00:09:16;;;;;;;13.83;12.27;;;21.60;99.90;;;;;;5045956;28;20198;-75
2023/06/22 00:11:42;;;;;;;12.37;11.27;;;21.50;99.90;;;;;;5052525;28;20958;-72
2023/06/22 00:14:07;;;;;;;13.80;12.60;;;21.50;99.90;;;;;;5045437;28;20194;-72
2023/06/22 00:16:33;;;;;;;14.20;12.73;;;21.60;99.90;;;;;;5044989;28;20194;-73
2023/06/22 00:19:00;;;;;;;11.52;10.50;;;21.50;99.90;;;;;;5045135;28;20267;-72
2023/06/22 00:21:26;;;;;;;12.27;11.07;;;21.50;99.90;;;;;;5046667;28;20346;-72
2023/06/22 00:23:52;;;;;;;11.60;10.50;;;21.40;99.90;;;;;;5049551;28;20253;-73
2023/06/22 00:26:18;;;;;;;12.23;11.07;;;21.40;99.90;;;;;;5049463;28;20201;-73
2023/06/22 00:28:43;;;;;;;11.93;10.73;;;21.40;99.90;;;;;;5049842;28;20266;-72
2023/06/22 00:31:09;;;;;;;11.50;10.50;;;21.40;99.90;;;;;;5049273;28;20202;-72
2023/06/22 00:33:34;;;;;;;11.80;10.73;;;21.40;99.90;;;;;;5061233;28;20194;-72
2023/06/22 00:36:00;;;;;;;11.00;10.00;;;21.40;99.90;;;;;;5049854;28;20206;-72
2023/06/22 00:38:25;;;;;;;11.27;10.03;;;21.50;99.90;;;;;;5046066;28;20206;-72
2023/06/22 00:40:51;;;;;;;10.77;9.87;;;21.50;99.90;;;;;;5050063;28;20214;-74
2023/06/22 00:43:16;;;;;;;10.93;9.83;;;21.60;99.90;;;;;;5049445;28;20275;-72
2023/06/22 00:45:42;;;;;;;11.13;10.20;;;21.50;99.90;;;;;;5055240;28;20293;-72
2023/06/22 00:48:08;;;;;;;11.20;10.20;;;21.40;99.90;;;;;;5065659;28;20229;-71
2023/06/22 00:50:35;;;;;;;10.57;9.50;;;21.40;99.90;;;;;;5066438;28;20684;-72
2023/06/22 00:53:10;;;;;;;10.87;9.87;;;21.20;99.90;;;;;;5068505;28;21107;-72
2023/06/22 00:55:51;;;;;;;10.90;9.90;;;21.20;99.90;;;;;;5056974;28;20190;-72
2023/06/22 00:58:17;;;;;;;11.63;10.53;;;21.20;99.90;;;;;;5050407;28;20680;-73
2023/06/22 01:00:43;;;;;;;12.47;11.37;;;21.20;99.90;;;;;;5046246;28;20198;-73
2023/06/22 01:03:09;;;;;;;11.87;10.80;;;21.20;99.90;;;;;;5046578;28;20701;-72
2023/06/22 01:05:35;;;;;;;12.37;11.27;;;21.30;99.90;;;;;;5047118;28;20298;-73
2023/06/22 01:08:23;;;;;;;11.93;10.00;;;21.30;99.90;;;;;;5049174;28;20201;-73
2023/06/22 01:10:51;;;;;;;11.47;10.37;;;21.10;99.90;;;;;;5045762;28;20300;-72
2023/06/22 01:13:29;;;;;;;12.83;11.50;;;21.00;99.90;;;;;;5045625;28;20972;-72
2023/06/22 01:16:18;;;;;;;12.13;10.87;;;21.00;99.90;;;;;;5045639;28;20206;-74
2023/06/22 01:18:46;;;;;;;11.93;10.73;;;20.90;99.90;;;;;;5054422;28;20276;-73
2023/06/22 01:21:17;;;;;;;11.90;10.80;;;20.90;99.90;;;;;;5044576;28;20566;-73
2023/06/22 01:23:58;;;;;;;10.93;9.83;;;20.90;99.90;;;;;;5048591;28;20219;-72
2023/06/22 01:26:30;;;;;;;11.77;10.63;;;20.90;99.90;;;;;;5044303;28;20638;-71
2023/06/22 01:28:58;;;;;;;11.53;10.53;;;20.90;99.90;;;;;;5046207;28;20734;-71
2023/06/22 01:31:26;;;;;;;10.97;9.97;;;20.90;99.90;;;;;;5045933;28;20276;-72
2023/06/22 01:33:55;;;;;;;11.50;10.50;;;20.90;99.90;;;;;;5043151;28;20191;-73
2023/06/22 01:36:22;;;;;;;12.97;11.67;;;20.80;99.90;;;;;;5046392;28;20231;-73
2023/06/22 01:38:49;;;;;;;11.40;10.23;;;20.70;99.90;;;;;;5045189;28;20657;-73
2023/06/22 01:41:15;;;;;;;12.43;11.20;;;20.70;99.90;;;;;;5044833;28;20558;-73
2023/06/22 01:43:42;;;;;;;12.07;11.03;;;20.60;99.90;;;;;;5047314;28;20211;-72
2023/06/22 01:46:08;;;;;;;12.30;9.93;;;20.60;99.90;;;;;;5048274;28;20195;-71
2023/06/22 01:48:34;;;;;;;11.67;10.47;;;20.60;99.90;;;;;;5046397;28;20246;-71
2023/06/22 01:51:00;;;;;;;11.67;10.47;;;20.70;99.90;;;;;;5045273;28;20221;-72
2023/06/22 01:53:25;;;;;;;11.27;10.07;;;20.60;99.90;;;;;;5049433;28;20218;-72
2023/06/22 01:55:51;;;;;;;12.47;10.17;;;20.50;99.90;;;;;;5044374;28;20212;-73
2023/06/22 01:58:16;;;;;;;11.00;9.90;;;20.50;99.90;;;;;;5047026;28;21011;-72
2023/06/22 02:00:53;;;;;;;11.63;10.53;;;20.50;99.90;;;;;;5047618;28;20357;-72
2023/06/22 02:03:22;;;;;;;11.50;10.40;;;20.50;99.90;;;;;;5044857;28;20803;-73
2023/06/22 02:05:58;;;;;;;11.20;10.30;;;20.50;99.90;;;;;;5045355;28;20568;-73
2023/06/22 02:08:29;;;;;;;11.93;10.07;;;20.40;99.90;;;;;;5048148;28;20202;-73
2023/06/22 02:10:56;;;;;;;11.23;10.10;;;20.40;99.90;;;;;;5048318;28;20201;-73
2023/06/22 02:13:24;;;;;;;11.97;10.83;;;20.40;99.90;;;;;;5047250;28;20205;-74
2023/06/22 02:15:50;;;;;;;15.67;11.37;;;20.30;99.90;;;;;;5046818;28;20394;-73
2023/06/22 02:18:16;;;;;;;12.23;10.97;;;20.30;99.90;;;;;;5047014;28;20733;-73
2023/06/22 02:20:42;;;;;;;11.87;10.73;;;20.30;99.90;;;;;;5044030;28;20203;-73
2023/06/22 02:23:07;;;;;;;11.00;10.03;;;20.40;99.90;;;;;;5045897;28;20684;-72
2023/06/22 02:25:34;;;;;;;11.73;10.60;;;20.40;99.90;;;;;;5045173;28;20206;-72
2023/06/22 02:27:59;;;;;;;12.50;11.30;;;20.30;99.90;;;;;;5045011;28;20203;-73
2023/06/22 02:30:25;;;;;;;12.40;11.10;;;20.40;99.90;;;;;;5044973;28;20289;-73
2023/06/22 02:32:58;;;;;;;12.50;11.27;;;20.40;99.90;;;;;;5049669;28;20212;-73
2023/06/22 02:35:31;;;;;;;12.07;10.97;;;20.40;99.90;;;;;;5045398;28;20208;-72
2023/06/22 02:38:00;;;;;;;12.40;11.23;;;20.30;99.90;;;;;;5046408;28;20194;-72
2023/06/22 02:40:26;;;;;;;12.43;11.43;;;20.30;99.90;;;;;;5042749;28;20261;-72
2023/06/22 02:42:52;;;;;;;13.73;12.33;;;20.10;99.90;;;;;;5045647;28;20200;-71
2023/06/22 02:45:18;;;;;;;12.97;11.83;;;20.10;99.90;;;;;;5047547;28;20214;-72
2023/06/22 02:47:43;;;;;;;13.73;12.43;;;20.30;99.90;;;;;;5046175;28;20194;-72
2023/06/22 02:50:09;;;;;;;13.63;12.30;;;20.30;99.90;;;;;;5047033;28;20225;-73
2023/06/22 02:52:35;;;;;;;14.03;12.63;;;20.30;99.90;;;;;;5053874;28;20255;-73
2023/06/22 02:55:00;;;;;;;14.00;12.70;;;20.30;99.90;;;;;;5050137;28;20201;-74
2023/06/22 02:57:26;;;;;;;13.67;12.47;;;20.20;99.90;;;;;;5042771;28;20210;-73
2023/06/22 02:59:51;;;;;;;14.90;13.60;;;20.20;99.90;;;;;;5046536;28;20226;-74
2023/06/22 03:02:17;;;;;;;16.10;14.53;;;20.30;99.90;;;;;;5046291;28;20305;-74
2023/06/22 03:04:43;;;;;;;15.10;13.50;;;20.30;99.90;;;;;;5046233;28;20206;-74
2023/06/22 03:07:08;;;;;;;14.03;12.73;;;20.30;99.90;;;;;;5046295;28;20201;-74
2023/06/22 03:09:34;;;;;;;13.80;12.67;;;20.30;99.90;;;;;;5045166;28;20275;-73
2023/06/22 03:12:01;;;;;;;15.13;13.40;;;20.30;99.90;;;;;;5045682;28;20272;-71
2023/06/22 03:14:27;;;;;;;15.17;13.60;;;20.30;99.90;;;;;;5050928;28;20389;-72
2023/06/22 03:16:52;;;;;;;15.40;13.67;;;20.30;99.90;;;;;;5049629;28;20217;-72
2023/06/22 03:19:19;;;;;;;15.30;13.80;;;20.30;99.90;;;;;;5046018;28;20225;-71
2023/06/22 03:21:44;;;;;;;14.97;13.53;;;20.20;99.90;;;;;;5049387;28;20239;-74
2023/06/22 03:24:10;;;;;;;15.20;13.63;;;20.30;99.90;;;;;;5042211;28;20218;-73
2023/06/22 03:26:35;;;;;;;13.63;12.27;;;20.30;99.90;;;;;;5046455;28;20198;-74
2023/06/22 03:29:01;;;;;;;14.13;12.83;;;20.30;99.90;;;;;;5047963;28;20313;-74
2023/06/22 03:31:26;;;;;;;15.23;13.83;;;20.30;99.90;;;;;;5044420;28;20263;-73
2023/06/22 03:33:52;;;;;;;15.20;13.80;;;20.40;99.90;;;;;;5044622;28;20496;-73
2023/06/22 03:36:22;;;;;;;23.37;14.93;;;20.30;99.90;;;;;;5045177;28;20207;-73
2023/06/22 03:38:48;;;;;;;14.93;13.63;;;20.40;99.90;;;;;;5055514;28;20244;-73
2023/06/22 03:41:14;;;;;;;15.33;13.03;;;20.30;99.90;;;;;;5045380;28;20261;-73
2023/06/22 03:43:40;;;;;;;14.77;13.27;;;20.40;99.90;;;;;;5042275;28;20527;-74
2023/06/22 03:46:05;;;;;;;14.33;12.93;;;20.40;99.90;;;;;;5052100;28;20198;-72
2023/06/22 03:48:31;;;;;;;15.83;13.60;;;20.40;99.90;;;;;;5045613;28;20697;-72
2023/06/22 03:50:57;;;;;;;14.33;12.83;;;20.40;99.90;;;;;;5046007;28;20397;-72
2023/06/22 03:53:22;;;;;;;12.97;11.63;;;20.40;99.90;;;;;;5045776;28;20687;-71
2023/06/22 03:55:50;;;;;;;13.80;12.07;;;20.40;99.90;;;;;;5047559;28;20205;-72
2023/06/22 03:58:16;;;;;;;12.33;11.23;;;20.50;99.90;;;;;;5049100;28;20687;-72
2023/06/22 04:00:42;;;;;;;12.47;11.30;;;20.60;99.90;;;;;;5049595;28;20235;-72
2023/06/22 04:03:07;;;;;;;11.90;10.80;;;20.60;99.90;;;;;;5047132;28;20287;-72
2023/06/22 04:05:33;;;;;;;10.70;9.30;;;20.70;99.90;;;;;;5049142;28;20570;-72
2023/06/22 04:07:58;;;;;;;10.80;9.87;;;20.60;99.90;;;;;;5049167;28;20211;-72
2023/06/22 04:10:24;;;;;;;9.23;8.30;;;20.60;99.90;;;;;;5047447;28;20205;-72
2023/06/22 04:12:49;;;;;;;10.00;9.20;;;20.60;99.90;;;;;;5049545;28;20743;-71
2023/06/22 04:15:15;;;;;;;9.43;8.50;;;20.60;99.90;;;;;;5049629;28;20202;-72
2023/06/22 04:17:40;;;;;;;9.80;8.77;;;20.60;99.90;;;;;;5049825;28;20442;-72
2023/06/22 04:20:07;;;;;;;12.00;9.53;;;20.60;99.90;;;;;;5051144;28;20656;-72
2023/06/22 04:22:32;;;;;;;9.57;8.57;;;20.60;99.90;;;;;;5055585;28;20280;-73
2023/06/22 04:24:58;;;;;;;12.43;9.47;;;20.60;99.90;;;;;;5049020;28;20710;-78
2023/06/22 04:27:23;;;;;;;12.93;9.77;;;20.60;99.90;;;;;;5048843;28;20209;-71
2023/06/22 04:29:49;;;;;;;10.40;7.73;;;20.70;99.90;;;;;;5048944;28;20868;-72
2023/06/22 04:32:15;;;;;;;10.03;9.00;;;20.80;99.90;;;;;;5049033;28;20198;-72
2023/06/22 04:34:41;;;;;;;9.10;8.20;;;20.80;99.90;;;;;;5047271;28;20203;-73
2023/06/22 04:37:07;;;;;;;9.90;8.17;;;20.80;99.90;;;;;;5049247;28;20206;-72
2023/06/22 04:39:32;;;;;;;13.07;11.47;;;20.80;99.90;;;;;;5049026;28;20730;-73
2023/06/22 04:42:00;;;;;;;11.67;9.40;;;20.80;99.90;;;;;;5052013;28;20205;-73
2023/06/22 04:44:26;;;;;;;9.40;8.40;;;20.80;99.90;;;;;;5047757;28;20214;-72
2023/06/22 04:47:08;;;;;;;9.27;8.47;;;20.90;99.90;;;;;;5047186;28;20558;-73
2023/06/22 04:49:37;;;;;;;10.10;7.40;;;21.00;99.90;;;;;;5046189;28;20203;-72
2023/06/22 04:52:05;;;;;;;8.10;6.93;;;21.10;99.90;;;;;;5052781;28;20200;-72
2023/06/22 04:54:32;;;;;;;8.27;7.47;;;21.20;99.90;;;;;;5044084;28;20209;-72
2023/06/22 04:57:00;;;;;;;7.33;6.70;;;21.20;99.90;;;;;;5048952;28;20249;-72
2023/06/22 04:59:29;;;;;;;11.30;8.60;;;21.30;99.90;;;;;;5048666;28;20209;-72
2023/06/22 05:01:56;;;;;;;7.40;6.70;;;21.40;99.90;;;;;;5048839;28;20210;-71
2023/06/22 05:04:23;;;;;;;8.60;6.93;;;21.40;99.90;;;;;;5046637;28;20710;-72
2023/06/22 05:06:49;;;;;;;7.50;6.80;;;21.50;99.90;;;;;;5053351;28;20413;-71
2023/06/22 05:09:15;;;;;;;7.37;5.93;;;21.50;99.90;;;;;;5058499;28;20205;-72
2023/06/22 05:11:40;;;;;;;9.00;6.47;;;21.60;99.90;;;;;;5058234;28;20198;-71
2023/06/22 05:14:07;;;;;;;11.00;7.20;;;21.60;99.90;;;;;;5058632;28;20563;-71
2023/06/22 05:16:32;;;;;;;6.77;6.03;;;21.70;99.90;;;;;;5055836;28;20198;-71
2023/06/22 05:18:58;;;;;;;10.17;6.07;;;21.70;99.90;;;;;;5058841;28;20202;-71
2023/06/22 05:21:25;;;;;;;8.37;6.20;;;21.80;99.90;;;;;;5057774;28;20209;-71
2023/06/22 05:23:52;;;;;;;8.23;5.20;;;21.90;99.90;;;;;;5057647;28;20247;-72
2023/06/22 05:26:19;;;;;;;5.13;4.33;;;21.90;99.90;;;;;;5057407;28;20194;-72
2023/06/22 05:28:45;;;;;;;8.50;4.77;;;21.90;99.90;;;;;;5060080;28;20886;-72
2023/06/22 05:31:13;;;;;;;5.07;4.47;;;22.00;99.90;;;;;;5054075;28;20274;-71
2023/06/22 05:33:38;;;;;;;6.25;4.97;;;22.00;99.90;;;;;;5057420;28;20221;-72
2023/06/22 05:36:04;;;;;;;4.67;4.00;;;22.00;99.90;;;;;;5057706;28;20281;-72
2023/06/22 05:38:30;;;;;;;5.97;4.30;;;22.10;99.90;;;;;;5055629;28;20210;-73
2023/06/22 05:40:56;;;;;;;4.63;4.23;;;22.20;99.90;;;;;;5048202;28;20205;-72
2023/06/22 05:43:21;;;;;;;6.30;4.33;;;22.20;99.90;;;;;;5057121;28;20277;-72
2023/06/22 05:45:47;;;;;;;11.10;5.07;;;22.30;99.90;;;;;;5055657;28;20209;-73
2023/06/22 05:48:13;;;;;;;4.53;4.10;;;22.20;99.90;;;;;;5057671;28;20246;-73
2023/06/22 05:50:38;;;;;;;5.05;4.35;;;22.30;99.90;;;;;;5054705;28;20199;-72
2023/06/22 05:53:04;;;;;;;5.23;3.70;;;22.30;99.90;;;;;;5057557;28;20672;-73
2023/06/22 05:55:29;;;;;;;5.57;4.25;;;22.40;99.90;;;;;;5055935;28;20194;-73
2023/06/22 05:57:55;;;;;;;4.43;3.95;;;22.40;99.90;;;;;;5057447;28;20789;-73
2023/06/22 06:00:21;;;;;;;8.40;4.23;;;22.40;99.90;;;;;;5057257;28;20195;-72
2023/06/22 06:02:49;;;;;;;6.30;4.13;;;22.40;99.90;;;;;;5056799;28;20191;-72
2023/06/22 06:05:15;;;;;;;5.35;4.13;;;22.40;99.90;;;;;;5057341;28;20219;-73
2023/06/22 06:07:41;;;;;;;4.20;3.80;;;22.40;99.90;;;;;;5052054;28;20194;-73
2023/06/22 06:10:07;;;;;;;4.30;3.93;;;22.30;99.90;;;;;;5057366;28;20198;-72
2023/06/22 06:12:33;;;;;;;5.67;3.77;;;22.40;99.90;;;;;;5057265;28;20203;-71
2023/06/22 06:14:58;;;;;;;3.93;3.60;;;22.50;99.90;;;;;;5060364;28;20668;-71
2023/06/22 06:17:24;;;;;;;4.70;4.20;;;22.50;99.90;;;;;;5053050;28;20275;-70
2023/06/22 06:19:49;;;;;;;4.57;4.20;;;22.50;99.90;;;;;;5055665;28;20213;-71
2023/06/22 06:22:15;;;;;;;6.13;4.43;;;22.60;99.90;;;;;;5056766;28;20293;-71
2023/06/22 06:24:40;;;;;;;3.40;3.20;;;22.60;99.90;;;;;;5057279;28;20222;-71
2023/06/22 06:27:06;;;;;;;5.43;4.60;;;22.70;99.90;;;;;;5057025;28;20195;-71
2023/06/22 06:29:32;;;;;;;5.17;4.67;;;22.70;99.90;;;;;;5058288;28;20273;-71
2023/06/22 06:31:57;;;;;;;4.70;4.03;;;22.80;99.90;;;;;;5055939;28;20198;-70
2023/06/22 06:34:23;;;;;;;4.63;4.23;;;22.80;99.90;;;;;;5059488;28;20244;-71
2023/06/22 06:36:48;;;;;;;9.37;4.43;;;22.80;99.90;;;;;;5057249;28;20252;-71
2023/06/22 06:39:15;;;;;;;5.60;4.53;;;22.90;99.90;;;;;;5055427;28;20230;-72
2023/06/22 06:41:41;;;;;;;4.60;4.20;;;22.80;99.90;;;;;;5059077;28;20198;-71
2023/06/22 06:44:06;;;;;;;5.55;4.30;;;23.00;99.90;;;;;;5053547;28;20220;-72
2023/06/22 06:46:32;;;;;;;4.57;4.17;;;23.00;99.90;;;;;;5056647;28;20202;-72
2023/06/22 06:48:57;;;;;;;6.28;4.93;;;23.10;99.90;;;;;;5057415;28;20189;-71
2023/06/22 06:51:23;;;;;;;8.60;4.80;;;23.10;99.90;;;;;;5053198;28;20259;-72
2023/06/22 06:53:49;;;;;;;4.90;4.17;;;23.10;99.90;;;;;;5056984;28;20202;-72
2023/06/22 06:56:14;;;;;;;5.77;4.57;;;23.10;99.90;;;;;;5056049;28;20212;-73
2023/06/22 06:58:44;;;;;;;8.57;4.22;;;23.10;99.90;;;;;;5055377;28;20293;-72
2023/06/22 07:01:11;;;;;;;4.37;3.53;;;23.20;99.90;;;;;;5048499;28;20294;-72
2023/06/22 07:03:37;;;;;;;5.10;3.70;;;23.20;99.90;;;;;;5056678;28;20226;-71
2023/06/22 07:06:02;;;;;;;4.47;3.78;;;23.30;99.90;;;;;;5059262;28;20204;-73
2023/06/22 07:08:28;;;;;;;4.25;3.53;;;23.40;99.90;;;;;;5056952;28;20623;-72
2023/06/22 07:10:54;;;;;;;4.93;3.70;;;23.50;99.90;;;;;;5052490;28;20201;-72
2023/06/22 07:13:19;;;;;;;4.25;3.88;;;23.60;99.90;;;;;;5055635;28;20214;-72
2023/06/22 07:15:45;;;;;;;4.15;3.63;;;23.70;99.90;;;;;;5056450;28;20201;-72
2023/06/22 07:18:10;;;;;;;3.92;3.53;;;23.80;99.90;;;;;;5055247;28;20677;-72
2023/06/22 07:20:36;;;;;;;4.53;3.83;;;23.80;99.90;;;;;;5057741;28;20199;-75
2023/06/22 07:23:02;;;;;;;5.50;4.07;;;23.90;99.90;;;;;;5056411;28;20707;-72
2023/06/22 07:25:28;;;;;;;4.65;3.30;;;23.90;99.90;;;;;;5053713;28;20203;-73
2023/06/22 07:28:04;;;;;;;3.97;3.30;;;23.90;99.90;;;;;;5055142;28;20191;-72
2023/06/22 07:30:32;;;;;;;3.80;3.03;;;24.10;99.90;;;;;;5056520;28;20208;-73
2023/06/22 07:32:58;;;;;;;3.63;3.03;;;24.20;99.90;;;;;;5051626;28;20202;-71
2023/06/22 07:35:24;;;;;;;5.18;3.58;;;24.20;99.40;;;;;;5052665;28;20216;-72
2023/06/22 07:37:49;;;;;;;2.75;2.55;;;24.20;99.90;;;;;;5058372;28;20201;-71
2023/06/22 07:40:15;;;;;;;4.45;3.53;;;24.30;99.90;;;;;;5051634;28;20240;-71
2023/06/22 07:42:40;;;;;;;3.53;3.22;;;24.20;99.90;;;;;;5055266;28;20218;-71
2023/06/22 07:45:08;;;;;;;3.28;2.97;;;24.40;99.40;;;;;;5055748;28;20302;-71
2023/06/22 07:47:35;;;;;;;3.45;3.17;;;24.50;99.60;;;;;;5053646;28;20200;-76
2023/06/22 07:50:01;;;;;;;4.97;3.55;;;24.50;98.30;;;;;;5056700;28;20233;-74
2023/06/22 07:52:28;;;;;;;3.83;3.13;;;24.70;97.70;;;;;;5054410;28;20226;-73
2023/06/22 07:54:53;;;;;;;3.70;3.38;;;24.70;97.20;;;;;;5055600;28;20198;-73
2023/06/22 07:57:19;;;;;;;3.65;2.80;;;24.70;98.30;;;;;;5059316;28;20563;-74
2023/06/22 07:59:45;;;;;;;3.22;2.92;;;24.80;97.30;;;;;;5049135;28;20676;-72
2023/06/22 08:02:11;;;;;;;6.03;3.65;;;24.70;97.70;;;;;;5054521;28;20213;-78
2023/06/22 08:04:36;;;;;;;3.35;3.05;;;25.00;97.20;;;;;;5055801;28;20613;-73
2023/06/22 08:07:02;;;;;;;3.38;2.60;;;25.00;97.60;;;;;;5057458;28;20235;-75
2023/06/22 08:09:31;;;;;;;4.15;2.90;;;25.10;94.40;;;;;;5055635;28;20192;-74
2023/06/22 08:11:56;;;;;;;8.68;3.28;;;25.10;94.60;;;;;;5052179;28;20673;-75
2023/06/22 08:14:23;;;;;;;2.60;2.40;;;25.10;94.20;;;;;;5052837;28;20273;-75
2023/06/22 08:16:49;;;;;;;2.60;2.42;;;25.20;93.30;;;;;;5053860;28;20243;-75
2023/06/22 08:19:14;;;;;;;2.88;2.67;;;25.20;94.60;;;;;;5055861;28;20194;-75
2023/06/22 08:21:40;;;;;;;3.42;3.03;;;25.20;94.30;;;;;;5051866;28;20251;-75
2023/06/22 08:24:07;;;;;;;3.03;2.83;;;25.00;93.40;;;;;;5052746;28;20220;-74
2023/06/22 08:26:35;;;;;;;2.45;2.25;;;25.00;93.10;;;;;;5055655;28;20598;-76
2023/06/22 08:29:01;;;;;;;3.22;2.92;;;25.20;92.60;;;;;;5053868;28;20238;-75
2023/06/22 08:31:27;;;;;;;3.25;2.95;;;25.20;92.20;;;;;;5052425;28;20200;-76
2023/06/22 08:33:52;;;;;;;4.78;3.10;;;25.10;91.90;;;;;;5054173;28;20268;-75
2023/06/22 08:36:18;;;;;;;3.10;2.58;;;25.10;93.60;;;;;;5052332;28;20219;-75
2023/06/22 08:38:44;;;;;;;3.90;2.92;;;25.10;93.30;;;;;;5055551;28;20597;-75
2023/06/22 08:41:10;;;;;;;3.08;2.88;;;25.00;92.70;;;;;;5061742;28;20236;-76
2023/06/22 08:43:35;;;;;;;3.15;2.90;;;25.00;92.10;;;;;;5056936;28;20248;-75
2023/06/22 08:46:02;;;;;;;3.20;2.90;;;25.00;92.20;;;;;;5058178;28;20260;-74
2023/06/22 08:48:28;;;;;;;3.92;3.20;;;25.10;91.70;;;;;;5049510;28;20243;-75
2023/06/22 08:50:54;;;;;;;2.58;2.38;;;25.00;91.90;;;;;;5046684;28;20588;-74
2023/06/22 08:53:20;;;;;;;2.88;2.58;;;25.00;92.40;;;;;;5048456;28;20614;-75
2023/06/22 08:55:45;;;;;;;2.67;2.42;;;25.00;91.60;;;;;;5047740;28;20187;-75
2023/06/22 08:58:11;;;;;;;2.92;2.67;;;25.00;91.40;;;;;;5054792;28;20191;-73
2023/06/22 09:00:39;;;;;;;5.93;2.60;;;25.00;92.30;;;;;;5058112;28;20206;-75
2023/06/22 09:03:14;;;;;;;2.75;2.55;;;25.10;91.90;;;;;;5060296;28;20226;-75
2023/06/22 09:05:40;;;;;;;2.95;2.75;;;25.20;91.70;;;;;;5059092;28;20690;-74
2023/06/22 09:08:05;;;;;;;3.00;2.70;;;25.30;90.30;;;;;;5056897;28;20189;-74
2023/06/22 09:10:31;;;;;;;4.00;2.78;;;25.30;91.10;;;;;;5056913;28;20199;-74
2023/06/22 09:12:57;;;;;;;3.70;3.40;;;25.60;90.60;;;;;;5057985;28;20273;-74
2023/06/22 09:15:23;;;;;;;4.07;2.80;;;25.70;92.20;;;;;;5054730;28;20384;-74
2023/06/22 09:17:48;;;;;;;3.78;3.45;;;25.80;91.40;;;;;;5058207;28;20487;-74
2023/06/22 09:20:14;;;;;;;8.57;6.25;;;25.80;91.20;;;;;;5056944;28;20195;-74
2023/06/22 09:22:40;;;;;;;8.30;3.28;;;25.80;92.30;;;;;;5056236;28;20660;-74
2023/06/22 09:25:06;;;;;;;3.40;3.10;;;25.80;91.10;;;;;;5061184;28;20210;-75
2023/06/22 09:27:31;;;;;;;4.80;3.60;;;25.80;91.50;;;;;;5058385;28;20203;-74
2023/06/22 09:29:58;;;;;;;4.03;3.72;;;25.80;91.70;;;;;;5055244;28;20569;-74
2023/06/22 09:32:24;;;;;;;3.63;3.35;;;25.70;91.90;;;;;;5051116;28;20268;-75
2023/06/22 09:34:50;;;;;;;5.60;3.30;;;25.70;92.40;;;;;;5060563;28;20214;-74
2023/06/22 09:37:15;;;;;;;3.92;3.63;;;25.80;92.80;;;;;;5058437;28;20215;-75
2023/06/22 09:39:41;;;;;;;4.85;3.60;;;25.80;91.60;;;;;;5056766;28;20224;-74
2023/06/22 09:42:07;;;;;;;3.78;3.47;;;25.80;91.30;;;;;;5054609;28;20215;-75
2023/06/22 09:44:32;;;;;;;10.52;3.92;;;25.90;91.90;;;;;;5057204;28;20211;-75
2023/06/22 09:46:57;;;;;;;3.75;3.22;;;26.10;91.20;;;;;;5058554;28;20200;-75
2023/06/22 09:49:23;;;;;;;3.88;2.95;;;26.20;90.90;;;;;;5057635;28;20791;-75
2023/06/22 09:51:50;;;;;;;5.00;3.70;;;26.10;90.20;;;;;;5054074;28;20229;-75
2023/06/22 09:54:16;;;;;;;5.30;3.63;;;26.20;88.80;;;;;;5054647;28;20234;-75
2023/06/22 09:56:41;;;;;;;9.15;3.40;;;26.10;89.20;;;;;;5061001;28;20226;-75
2023/06/22 09:59:07;;;;;;;3.20;2.88;;;26.00;88.70;;;;;;5056157;28;20202;-75
2023/06/22 10:01:32;;;;;;;9.27;5.43;;;26.20;87.80;;;;;;5053702;28;20235;-75
2023/06/22 10:03:58;;;;;;;4.43;3.85;;;26.20;87.00;;;;;;5058421;28;20224;-74
2023/06/22 10:06:24;;;;;;;3.80;3.50;;;26.40;88.30;;;;;;5056022;28;20680;-74
2023/06/22 10:08:51;;;;;;;3.47;3.22;;;26.40;88.30;;;;;;5057324;28;20217;-75
2023/06/22 10:11:16;;;;;;;6.30;3.20;;;26.50;87.80;;;;;;5053997;28;20198;-75
2023/06/22 10:13:42;;;;;;;5.47;3.30;;;26.40;89.20;;;;;;5059100;28;20217;-75
2023/06/22 10:16:07;;;;;;;4.45;4.05;;;26.40;88.90;;;;;;5056040;28;20203;-75
2023/06/22 10:18:33;;;;;;;4.68;4.28;;;26.40;90.00;;;;;;5052885;28;20209;-75
2023/06/22 10:20:58;;;;;;;4.72;3.90;;;26.70;90.00;;;;;;5063363;28;20216;-74
2023/06/22 10:23:23;;;;;;;3.85;3.55;;;26.70;88.80;;;;;;5050516;28;20283;-75
2023/06/22 10:25:49;;;;;;;3.53;3.28;;;26.80;89.60;;;;;;5056994;28;20197;-75
2023/06/22 10:28:15;;;;;;;5.35;4.13;;;26.80;85.70;;;;;;5056927;28;20704;-76
2023/06/22 10:30:42;;;;;;;3.75;3.35;;;26.90;88.00;;;;;;5057697;28;20204;-75
2023/06/22 10:33:08;;;;;;;7.05;4.30;;;26.80;88.30;;;;;;5048035;28;20607;-76
2023/06/22 10:35:34;;;;;;;9.43;4.13;;;27.00;90.10;;;;;;5056996;28;20303;-76
2023/06/22 10:38:00;;;;;;;5.00;4.43;;;27.00;90.00;;;;;;5056568;28;20846;-75
2023/06/22 10:40:25;;;;;;;4.55;3.97;;;27.10;88.80;;;;;;5063028;28;20224;-75
2023/06/22 10:42:51;;;;;;;4.40;4.00;;;27.10;89.80;;;;;;5065434;28;20775;-77
2023/06/22 10:45:16;;;;;;;4.00;3.60;;;27.20;88.60;;;;;;5063121;28;20328;-73
2023/06/22 10:47:42;;;;;;;4.60;4.20;;;27.20;86.40;;;;;;5063736;28;20282;-75
2023/06/22 10:50:08;;;;;;;4.30;3.90;;;27.10;88.60;;;;;;5064134;28;20199;-76
2023/06/22 10:52:33;;;;;;;5.30;3.42;;;27.00;88.90;;;;;;5060500;28;20881;-75
2023/06/22 10:54:59;;;;;;;3.70;3.47;;;27.10;88.40;;;;;;5061521;28;20199;-75
2023/06/22 10:57:24;;;;;;;4.00;3.67;;;27.10;85.60;;;;;;5057263;28;20195;-80
2023/06/22 10:59:50;;;;;;;4.10;3.80;;;27.10;88.80;;;;;;5056415;28;20196;-73
2023/06/22 11:02:15;;;;;;;4.60;4.20;;;27.20;89.50;;;;;;5056897;28;20724;-74
2023/06/22 11:04:41;;;;;;;4.03;3.70;;;27.20;89.40;;;;;;5056345;28;20210;-76
2023/06/22 11:07:06;;;;;;;4.57;4.22;;;27.50;87.70;;;;;;5056888;28;20209;-75
2023/06/22 11:09:32;;;;;;;4.78;4.40;;;27.70;87.70;;;;;;5054375;28;20505;-74
2023/06/22 11:11:58;;;;;;;5.53;4.45;;;27.80;85.30;;;;;;5055190;28;20197;-75
2023/06/22 11:14:24;;;;;;;5.00;4.60;;;27.90;90.00;;;;;;5059400;28;20199;-74
2023/06/22 11:16:50;;;;;;;4.65;4.25;;;27.80;86.80;;;;;;5065003;28;20268;-74
2023/06/22 11:19:16;;;;;;;4.20;3.80;;;27.70;88.60;;;;;;5061007;28;20614;-74
2023/06/22 11:21:42;;;;;;;4.68;4.22;;;27.90;88.90;;;;;;5067405;28;20191;-73
2023/06/22 11:24:07;;;;;;;8.85;4.50;;;27.90;82.10;;;;;;5062118;28;20221;-73
2023/06/22 11:26:33;;;;;;;4.53;4.15;;;27.80;80.10;;;;;;5056690;28;20205;-74
2023/06/22 11:28:59;;;;;;;3.60;3.30;;;27.80;81.90;;;;;;5058875;28;20192;-73
2023/06/22 11:31:25;;;;;;;5.60;3.83;;;27.70;90.50;;;;;;5053058;28;20222;-74
2023/06/22 11:33:50;;;;;;;4.63;4.22;;;27.80;86.60;;;;;;5054066;28;20624;-75
2023/06/22 11:36:16;;;;;;;5.47;4.07;;;27.80;86.50;;;;;;5056165;28;20246;-73
2023/06/22 11:38:42;;;;;;;4.38;3.97;;;27.70;85.10;;;;;;5058541;28;20707;-74
2023/06/22 11:41:09;;;;;;;4.90;4.30;;;28.00;89.00;;;;;;5053602;28;20205;-75
2023/06/22 11:43:35;;;;;;;6.63;5.53;;;28.10;81.70;;;;;;5055237;28;20209;-76
2023/06/22 11:46:03;;;;;;;4.45;4.05;;;28.30;82.40;;;;;;5056031;28;20205;-77
2023/06/22 11:48:28;;;;;;;5.15;4.72;;;28.40;82.80;;;;;;5056868;28;20194;-75
2023/06/22 11:50:54;;;;;;;4.68;4.28;;;28.50;79.50;;;;;;5056656;28;20680;-75
2023/06/22 11:53:21;;;;;;;4.32;3.90;;;28.90;82.80;;;;;;5051742;28;20682;-76
2023/06/22 11:55:47;;;;;;;4.40;4.05;;;28.90;82.70;;;;;;5056119;28;20221;-75
2023/06/22 11:58:13;;;;;;;5.90;5.40;;;29.00;80.40;;;;;;5055161;28;20243;-75
2023/06/22 12:00:38;;;;;;;8.05;4.10;;;28.80;79.80;;;;;;5061419;28;20204;-75
2023/06/22 12:03:04;;;;;;;4.55;4.15;;;28.70;80.00;;;;;;5052681;28;20293;-75
2023/06/22 12:05:30;;;;;;;5.78;4.55;;;28.30;78.20;;;;;;5055979;28;20222;-76
2023/06/22 12:07:55;;;;;;;5.40;4.47;;;28.20;79.90;;;;;;5057029;28;20520;-76
2023/06/22 12:10:23;;;;;;;3.92;3.63;;;28.70;81.10;;;;;;5056126;28;20204;-75
2023/06/22 12:12:48;;;;;;;4.88;4.40;;;28.90;80.40;;;;;;5054362;28;20190;-75
2023/06/22 12:15:14;;;;;;;4.55;4.25;;;29.20;79.10;;;;;;5050890;28;20747;-76
2023/06/22 12:17:40;;;;;;;4.25;3.95;;;29.40;77.70;;;;;;5048241;28;20242;-75
2023/06/22 12:20:06;;;;;;;4.72;4.30;;;29.70;76.10;;;;;;5050508;28;20237;-76
2023/06/22 12:22:32;;;;;;;5.07;4.20;;;30.00;76.80;;;;;;5058326;28;20252;-76
2023/06/22 12:24:58;;;;;;;4.20;3.90;;;30.00;76.90;;;;;;5052876;28;20214;-76
2023/06/22 12:27:25;;;;;;;5.05;4.15;;;30.00;76.10;;;;;;5046129;28;20294;-76
2023/06/22 12:29:51;;;;;;;4.30;3.97;;;30.30;76.60;;;;;;5058364;28;20210;-75
2023/06/22 12:32:17;;;;;;;4.18;3.88;;;30.30;73.30;;;;;;5050532;28;20274;-76
2023/06/22 12:34:44;;;;;;;4.22;3.72;;;30.60;74.60;;;;;;5050615;28;20195;-75
2023/06/22 12:37:09;;;;;;;6.55;4.65;;;30.80;73.70;;;;;;5050511;28;20833;-75